sensor_id;sensor_type;location;lat;lon;timestamp;temperature;humidity
11736;DHT22;5924;51.398;7.088;2024-02-28T00:01:27;-1.30;99.90
11736;DHT22;5924;51.398;7.088;2024-02-28T00:03:52;-1.30;99.90
11736;DHT22;5924;51.398;7.088;2024-02-28T00:06:18;-1.40;99.90
11736;DHT22;5924;51.398;7.088;2024-02-28T00:08:44;-1.40;99.90
11736;DHT22;5924;51.398;7.088;2024-02-28T00:11:10;-1.40;99.90
11736;DHT22;5924;51.398;7.088;2024-02-28T00:13:36;-1.40;99.90
11736;DHT22;5924;51.398;7.088;2024-02-28T00:16:01;-1.40;99.90
11736;DHT22;5924;51.398;7.088;2024-02-28T00:18:27;-1.40;99.90
11736;DHT22;5924;51.398;7.088;2024-02-28T00:20:53;-1.40;99.90
11736;DHT22;5924;51.398;7.088;2024-02-28T00:23:19;-1.40;99.90
11736;DHT22;5924;51.398;7.088;2024-02-28T00:25:46;-1.40;99.90
11736;DHT22;5924;51.398;7.088;2024-02-28T00:28:12;-1.30;99.90
11736;DHT22;5924;51.398;7.088;2024-02-28T00:30:37;1.10;99.90
11736;DHT22;5924;51.398;7.088;2024-02-28T00:33:03;-1.40;99.90
11736;DHT22;5924;51.398;7.088;2024-02-28T00:35:32;-1.40;99.90
11736;DHT22;5924;51.398;7.088;2024-02-28T00:38:00;-1.50;99.90
11736;DHT22;5924;51.398;7.088;2024-02-28T00:40:26;-1.50;99.90
11736;DHT22;5924;51.398;7.088;2024-02-28T00:42:52;-1.50;99.90
11736;DHT22;5924;51.398;7.088;2024-02-28T00:45:18;-1.50;99.90
11736;DHT22;5924;51.398;7.088;2024-02-28T00:47:44;-1.50;99.90
11736;DHT22;5924;51.398;7.088;2024-02-28T00:50:09;-3.10;99.90
11736;DHT22;5924;51.398;7.088;2024-02-28T00:52:37;-1.60;99.90
11736;DHT22;5924;51.398;7.088;2024-02-28T00:55:03;-1.70;99.90
11736;DHT22;5924;51.398;7.088;2024-02-28T00:57:31;-1.60;99.90
11736;DHT22;5924;51.398;7.088;2024-02-28T00:59:56;-1.50;99.90
11736;DHT22;5924;51.398;7.088;2024-02-28T01:02:22;-1.60;99.90
11736;DHT22;5924;51.398;7.088;2024-02-28T01:04:48;-0.30;99.90
11736;DHT22;5924;51.398;7.088;2024-02-28T01:07:14;-1.60;99.90
11736;DHT22;5924;51.398;7.088;2024-02-28T01:09:39;-1.60;99.90
11736;DHT22;5924;51.398;7.088;2024-02-28T01:12:05;-1.70;99.90
11736;DHT22;5924;51.398;7.088;2024-02-28T01:14:31;-1.70;99.90
11736;DHT22;5924;51.398;7.088;2024-02-28T01:16:56;-1.70;99.90
11736;DHT22;5924;51.398;7.088;2024-02-28T01:19:22;-1.80;99.90
11736;DHT22;5924;51.398;7.088;2024-02-28T01:21:47;-1.80;99.90
11736;DHT22;5924;51.398;7.088;2024-02-28T01:24:13;-1.70;99.90
11736;DHT22;5924;51.398;7.088;2024-02-28T01:26:39;-1.70;99.90
11736;DHT22;5924;51.398;7.088;2024-02-28T01:29:05;-1.70;99.90
11736;DHT22;5924;51.398;7.088;2024-02-28T01:31:31;-2.00;99.90
11736;DHT22;5924;51.398;7.088;2024-02-28T01:33:57;-1.70;99.90
11736;DHT22;5924;51.398;7.088;2024-02-28T01:36:23;-1.60;99.90
11736;DHT22;5924;51.398;7.088;2024-02-28T01:38:48;-1.60;99.90
11736;DHT22;5924;51.398;7.088;2024-02-28T01:41:14;-1.40;99.90
11736;DHT22;5924;51.398;7.088;2024-02-28T01:43:39;-1.20;99.90
11736;DHT22;5924;51.398;7.088;2024-02-28T01:46:26;-1.10;99.90
11736;DHT22;5924;51.398;7.088;2024-02-28T01:48:56;-0.90;99.90
11736;DHT22;5924;51.398;7.088;2024-02-28T01:51:24;-0.70;99.90
11736;DHT22;5924;51.398;7.088;2024-02-28T01:53:52;-0.60;99.90
11736;DHT22;5924;51.398;7.088;2024-02-28T01:56:19;-0.50;99.90
11736;DHT22;5924;51.398;7.088;2024-02-28T01:58:46;-0.50;99.90
11736;DHT22;5924;51.398;7.088;2024-02-28T02:01:16;-0.40;99.90
11736;DHT22;5924;51.398;7.088;2024-02-28T02:03:45;-0.30;99.90
11736;DHT22;5924;51.398;7.088;2024-02-28T02:06:11;-0.30;99.90
11736;DHT22;5924;51.398;7.088;2024-02-28T02:08:37;-0.20;99.90
11736;DHT22;5924;51.398;7.088;2024-02-28T02:11:04;-0.20;99.90
11736;DHT22;5924;51.398;7.088;2024-02-28T02:13:31;-0.30;99.90
11736;DHT22;5924;51.398;7.088;2024-02-28T02:15:56;-0.30;99.90
11736;DHT22;5924;51.398;7.088;2024-02-28T02:18:22;-0.10;99.90
11736;DHT22;5924;51.398;7.088;2024-02-28T02:20:52;1.20;99.90
11736;DHT22;5924;51.398;7.088;2024-02-28T02:23:19;-0.20;99.90
11736;DHT22;5924;51.398;7.088;2024-02-28T02:25:46;-0.20;99.90
11736;DHT22;5924;51.398;7.088;2024-02-28T02:28:11;-0.20;99.90
11736;DHT22;5924;51.398;7.088;2024-02-28T02:30:38;-0.10;99.90
11736;DHT22;5924;51.398;7.088;2024-02-28T02:33:04;-0.10;99.90
11736;DHT22;5924;51.398;7.088;2024-02-28T02:35:30;-0.10;99.90
11736;DHT22;5924;51.398;7.088;2024-02-28T02:37:56;0.00;99.90
11736;DHT22;5924;51.398;7.088;2024-02-28T02:40:21;0.00;99.90
11736;DHT22;5924;51.398;7.088;2024-02-28T02:42:47;0.00;99.90
11736;DHT22;5924;51.398;7.088;2024-02-28T02:45:13;0.10;99.90
11736;DHT22;5924;51.398;7.088;2024-02-28T02:47:38;0.10;99.90
11736;DHT22;5924;51.398;7.088;2024-02-28T02:50:05;0.10;99.90
11736;DHT22;5924;51.398;7.088;2024-02-28T02:52:31;0.20;99.90
11736;DHT22;5924;51.398;7.088;2024-02-28T02:54:56;0.30;99.90
11736;DHT22;5924;51.398;7.088;2024-02-28T02:57:22;0.50;99.90
11736;DHT22;5924;51.398;7.088;2024-02-28T02:59:47;0.70;99.90
11736;DHT22;5924;51.398;7.088;2024-02-28T03:02:13;1.10;99.90
11736;DHT22;5924;51.398;7.088;2024-02-28T03:04:39;1.00;99.90
11736;DHT22;5924;51.398;7.088;2024-02-28T03:07:04;1.10;99.90
11736;DHT22;5924;51.398;7.088;2024-02-28T03:09:30;1.10;99.90
11736;DHT22;5924;51.398;7.088;2024-02-28T03:11:56;1.20;99.90
11736;DHT22;5924;51.398;7.088;2024-02-28T03:14:21;2.60;99.90
11736;DHT22;5924;51.398;7.088;2024-02-28T03:16:50;1.20;99.90
11736;DHT22;5924;51.398;7.088;2024-02-28T03:19:16;1.30;99.90
11736;DHT22;5924;51.398;7.088;2024-02-28T03:21:42;1.30;99.90
11736;DHT22;5924;51.398;7.088;2024-02-28T03:24:07;1.40;99.90
11736;DHT22;5924;51.398;7.088;2024-02-28T03:26:33;1.40;99.90
11736;DHT22;5924;51.398;7.088;2024-02-28T03:28:59;1.50;99.90
11736;DHT22;5924;51.398;7.088;2024-02-28T03:31:25;1.50;99.90
11736;DHT22;5924;51.398;7.088;2024-02-28T03:33:51;1.50;99.90
11736;DHT22;5924;51.398;7.088;2024-02-28T03:36:16;1.50;99.90
11736;DHT22;5924;51.398;7.088;2024-02-28T03:38:42;1.60;99.90
11736;DHT22;5924;51.398;7.088;2024-02-28T03:41:09;1.60;99.90
11736;DHT22;5924;51.398;7.088;2024-02-28T03:43:35;1.70;99.90
11736;DHT22;5924;51.398;7.088;2024-02-28T03:46:01;1.70;99.90
11736;DHT22;5924;51.398;7.088;2024-02-28T03:48:27;1.70;99.90
11736;DHT22;5924;51.398;7.088;2024-02-28T03:50:52;1.70;99.90
11736;DHT22;5924;51.398;7.088;2024-02-28T03:53:18;1.80;99.90
11736;DHT22;5924;51.398;7.088;2024-02-28T03:55:43;1.80;99.90
11736;DHT22;5924;51.398;7.088;2024-02-28T03:58:10;1.80;99.90
11736;DHT22;5924;51.398;7.088;2024-02-28T04:00:36;1.90;99.90
11736;DHT22;5924;51.398;7.088;2024-02-28T04:03:03;1.90;99.90
11736;DHT22;5924;51.398;7.088;2024-02-28T04:05:29;2.00;99.90
11736;DHT22;5924;51.398;7.088;2024-02-28T04:07:55;2.00;99.90
11736;DHT22;5924;51.398;7.088;2024-02-28T04:10:21;2.00;99.90
11736;DHT22;5924;51.398;7.088;2024-02-28T04:12:47;2.10;99.90
11736;DHT22;5924;51.398;7.088;2024-02-28T04:15:13;2.10;99.90
11736;DHT22;5924;51.398;7.088;2024-02-28T04:17:39;2.10;99.90
11736;DHT22;5924;51.398;7.088;2024-02-28T04:20:09;2.10;99.90
11736;DHT22;5924;51.398;7.088;2024-02-28T04:22:35;2.10;99.90
11736;DHT22;5924;51.398;7.088;2024-02-28T04:25:00;2.10;99.90
11736;DHT22;5924;51.398;7.088;2024-02-28T04:27:26;2.20;99.90
11736;DHT22;5924;51.398;7.088;2024-02-28T04:29:51;2.10;99.90
11736;DHT22;5924;51.398;7.088;2024-02-28T04:32:17;2.20;99.90
11736;DHT22;5924;51.398;7.088;2024-02-28T04:34:43;2.20;99.90
11736;DHT22;5924;51.398;7.088;2024-02-28T04:37:08;2.30;99.90
11736;DHT22;5924;51.398;7.088;2024-02-28T04:39:34;2.30;99.90
11736;DHT22;5924;51.398;7.088;2024-02-28T04:42:00;2.30;99.90
11736;DHT22;5924;51.398;7.088;2024-02-28T04:44:25;2.30;99.90
11736;DHT22;5924;51.398;7.088;2024-02-28T04:46:51;2.40;99.90
11736;DHT22;5924;51.398;7.088;2024-02-28T04:49:17;2.40;99.90
11736;DHT22;5924;51.398;7.088;2024-02-28T04:51:42;2.40;99.90
11736;DHT22;5924;51.398;7.088;2024-02-28T04:54:08;2.40;99.90
11736;DHT22;5924;51.398;7.088;2024-02-28T04:56:42;2.40;99.90
11736;DHT22;5924;51.398;7.088;2024-02-28T04:59:09;2.50;99.90
11736;DHT22;5924;51.398;7.088;2024-02-28T05:01:34;2.50;99.90
11736;DHT22;5924;51.398;7.088;2024-02-28T05:04:00;2.50;99.90
11736;DHT22;5924;51.398;7.088;2024-02-28T05:06:27;2.50;99.90
11736;DHT22;5924;51.398;7.088;2024-02-28T05:08:53;2.60;99.90
11736;DHT22;5924;51.398;7.088;2024-02-28T05:11:22;2.60;99.90
11736;DHT22;5924;51.398;7.088;2024-02-28T05:13:47;2.60;99.90
11736;DHT22;5924;51.398;7.088;2024-02-28T05:16:14;2.60;99.90
11736;DHT22;5924;51.398;7.088;2024-02-28T05:18:39;2.70;99.90
11736;DHT22;5924;51.398;7.088;2024-02-28T05:21:05;2.70;99.90
11736;DHT22;5924;51.398;7.088;2024-02-28T05:23:31;2.70;99.90
11736;DHT22;5924;51.398;7.088;2024-02-28T05:25:56;2.70;99.90
11736;DHT22;5924;51.398;7.088;2024-02-28T05:28:25;2.70;99.90
11736;DHT22;5924;51.398;7.088;2024-02-28T05:30:51;2.70;99.90
11736;DHT22;5924;51.398;7.088;2024-02-28T05:33:17;2.80;99.90
11736;DHT22;5924;51.398;7.088;2024-02-28T05:35:43;2.80;99.90
11736;DHT22;5924;51.398;7.088;2024-02-28T05:38:09;2.80;99.90
11736;DHT22;5924;51.398;7.088;2024-02-28T05:40:34;2.80;99.90
11736;DHT22;5924;51.398;7.088;2024-02-28T05:43:00;2.80;99.90
11736;DHT22;5924;51.398;7.088;2024-02-28T05:45:27;5.10;99.90
11736;DHT22;5924;51.398;7.088;2024-02-28T05:47:53;2.90;99.90
11736;DHT22;5924;51.398;7.088;2024-02-28T05:50:18;2.80;99.90
11736;DHT22;5924;51.398;7.088;2024-02-28T05:52:44;2.80;99.90
11736;DHT22;5924;51.398;7.088;2024-02-28T05:55:10;2.80;99.90
11736;DHT22;5924;51.398;7.088;2024-02-28T05:57:35;2.90;99.90
11736;DHT22;5924;51.398;7.088;2024-02-28T06:00:01;2.80;99.90
11736;DHT22;5924;51.398;7.088;2024-02-28T06:02:34;2.80;99.90
11736;DHT22;5924;51.398;7.088;2024-02-28T06:04:59;2.90;99.90
11736;DHT22;5924;51.398;7.088;2024-02-28T06:07:25;2.90;99.90
11736;DHT22;5924;51.398;7.088;2024-02-28T06:09:51;2.90;99.90
11736;DHT22;5924;51.398;7.088;2024-02-28T06:12:17;2.80;99.90
11736;DHT22;5924;51.398;7.088;2024-02-28T06:14:42;2.90;99.90
11736;DHT22;5924;51.398;7.088;2024-02-28T06:17:08;3.00;99.90
11736;DHT22;5924;51.398;7.088;2024-02-28T06:19:34;3.00;99.90
11736;DHT22;5924;51.398;7.088;2024-02-28T06:21:59;3.00;99.90
11736;DHT22;5924;51.398;7.088;2024-02-28T06:24:25;3.00;99.90
11736;DHT22;5924;51.398;7.088;2024-02-28T06:26:50;3.00;99.90
11736;DHT22;5924;51.398;7.088;2024-02-28T06:29:16;3.00;99.90
11736;DHT22;5924;51.398;7.088;2024-02-28T06:31:42;3.00;99.90
11736;DHT22;5924;51.398;7.088;2024-02-28T06:34:07;3.00;99.90
11736;DHT22;5924;51.398;7.088;2024-02-28T06:36:33;3.00;99.90
11736;DHT22;5924;51.398;7.088;2024-02-28T06:38:59;3.00;99.90
11736;DHT22;5924;51.398;7.088;2024-02-28T06:41:24;3.10;99.90
11736;DHT22;5924;51.398;7.088;2024-02-28T06:43:50;3.10;99.90
11736;DHT22;5924;51.398;7.088;2024-02-28T06:46:15;3.10;99.90
11736;DHT22;5924;51.398;7.088;2024-02-28T06:48:41;3.20;99.90
11736;DHT22;5924;51.398;7.088;2024-02-28T06:51:07;3.20;99.90
11736;DHT22;5924;51.398;7.088;2024-02-28T06:53:33;0.50;99.90
11736;DHT22;5924;51.398;7.088;2024-02-28T06:56:00;3.20;99.90
11736;DHT22;5924;51.398;7.088;2024-02-28T06:58:26;3.30;99.90
11736;DHT22;5924;51.398;7.088;2024-02-28T07:00:51;4.30;99.90
11736;DHT22;5924;51.398;7.088;2024-02-28T07:03:17;3.30;99.90
11736;DHT22;5924;51.398;7.088;2024-02-28T07:05:43;3.30;99.90
11736;DHT22;5924;51.398;7.088;2024-02-28T07:08:08;3.40;99.90
11736;DHT22;5924;51.398;7.088;2024-02-28T07:10:36;3.40;99.90
11736;DHT22;5924;51.398;7.088;2024-02-28T07:13:02;3.40;99.90
11736;DHT22;5924;51.398;7.088;2024-02-28T07:15:28;3.40;99.90
11736;DHT22;5924;51.398;7.088;2024-02-28T07:17:54;3.50;99.90
11736;DHT22;5924;51.398;7.088;2024-02-28T07:20:19;3.50;99.90
11736;DHT22;5924;51.398;7.088;2024-02-28T07:22:45;3.50;99.90
11736;DHT22;5924;51.398;7.088;2024-02-28T07:25:11;5.00;99.90
11736;DHT22;5924;51.398;7.088;2024-02-28T07:27:37;3.60;99.90
11736;DHT22;5924;51.398;7.088;2024-02-28T07:30:03;3.60;99.90
11736;DHT22;5924;51.398;7.088;2024-02-28T07:32:29;3.60;99.90
11736;DHT22;5924;51.398;7.088;2024-02-28T07:35:02;3.60;99.90
11736;DHT22;5924;51.398;7.088;2024-02-28T07:37:28;3.60;99.90
11736;DHT22;5924;51.398;7.088;2024-02-28T07:39:54;3.60;99.90
11736;DHT22;5924;51.398;7.088;2024-02-28T07:42:20;3.60;99.90
11736;DHT22;5924;51.398;7.088;2024-02-28T07:44:45;3.80;99.90
11736;DHT22;5924;51.398;7.088;2024-02-28T07:47:11;3.70;99.90
11736;DHT22;5924;51.398;7.088;2024-02-28T07:49:36;3.80;99.90
11736;DHT22;5924;51.398;7.088;2024-02-28T07:52:02;3.90;99.90
11736;DHT22;5924;51.398;7.088;2024-02-28T07:54:28;3.90;99.90
11736;DHT22;5924;51.398;7.088;2024-02-28T07:56:53;3.90;99.90
11736;DHT22;5924;51.398;7.088;2024-02-28T07:59:19;3.90;99.90
11736;DHT22;5924;51.398;7.088;2024-02-28T08:01:45;3.90;99.90
11736;DHT22;5924;51.398;7.088;2024-02-28T08:04:11;4.00;99.90
11736;DHT22;5924;51.398;7.088;2024-02-28T08:06:36;4.00;99.90
11736;DHT22;5924;51.398;7.088;2024-02-28T08:09:02;4.00;99.90
11736;DHT22;5924;51.398;7.088;2024-02-28T08:11:29;4.00;99.90
11736;DHT22;5924;51.398;7.088;2024-02-28T08:13:55;4.00;99.90
11736;DHT22;5924;51.398;7.088;2024-02-28T08:16:21;4.10;99.90
11736;DHT22;5924;51.398;7.088;2024-02-28T08:18:46;4.10;99.90
11736;DHT22;5924;51.398;7.088;2024-02-28T08:21:12;4.10;99.90
11736;DHT22;5924;51.398;7.088;2024-02-28T08:23:38;4.10;99.90
11736;DHT22;5924;51.398;7.088;2024-02-28T08:26:03;4.00;99.90
11736;DHT22;5924;51.398;7.088;2024-02-28T08:28:29;4.10;99.90
11736;DHT22;5924;51.398;7.088;2024-02-28T08:30:55;4.10;99.90
11736;DHT22;5924;51.398;7.088;2024-02-28T08:33:20;4.10;99.90
11736;DHT22;5924;51.398;7.088;2024-02-28T08:35:46;4.10;99.90
11736;DHT22;5924;51.398;7.088;2024-02-28T08:38:12;4.10;99.90
11736;DHT22;5924;51.398;7.088;2024-02-28T08:40:37;4.90;99.90
11736;DHT22;5924;51.398;7.088;2024-02-28T08:43:03;4.20;99.90
11736;DHT22;5924;51.398;7.088;2024-02-28T08:45:29;4.20;99.90
11736;DHT22;5924;51.398;7.088;2024-02-28T08:47:54;4.20;99.90
11736;DHT22;5924;51.398;7.088;2024-02-28T08:50:23;4.30;99.90
11736;DHT22;5924;51.398;7.088;2024-02-28T08:52:48;4.30;99.90
11736;DHT22;5924;51.398;7.088;2024-02-28T08:55:14;4.40;99.90
11736;DHT22;5924;51.398;7.088;2024-02-28T08:57:44;4.50;99.90
11736;DHT22;5924;51.398;7.088;2024-02-28T09:00:10;4.50;99.90
11736;DHT22;5924;51.398;7.088;2024-02-28T09:02:36;4.60;99.90
11736;DHT22;5924;51.398;7.088;2024-02-28T09:05:03;4.60;99.90
11736;DHT22;5924;51.398;7.088;2024-02-28T09:07:29;5.80;99.90
11736;DHT22;5924;51.398;7.088;2024-02-28T09:09:55;4.80;99.90
11736;DHT22;5924;51.398;7.088;2024-02-28T09:12:21;4.70;99.90
11736;DHT22;5924;51.398;7.088;2024-02-28T09:14:46;4.80;99.90
11736;DHT22;5924;51.398;7.088;2024-02-28T09:17:14;4.80;99.90
11736;DHT22;5924;51.398;7.088;2024-02-28T09:19:40;4.90;99.90
11736;DHT22;5924;51.398;7.088;2024-02-28T09:22:05;5.10;99.90
11736;DHT22;5924;51.398;7.088;2024-02-28T09:24:31;5.30;99.90
11736;DHT22;5924;51.398;7.088;2024-02-28T09:26:57;5.40;99.90
11736;DHT22;5924;51.398;7.088;2024-02-28T09:29:23;5.50;99.90
11736;DHT22;5924;51.398;7.088;2024-02-28T09:31:49;5.50;99.90
11736;DHT22;5924;51.398;7.088;2024-02-28T09:34:14;5.60;99.90
11736;DHT22;5924;51.398;7.088;2024-02-28T09:36:43;5.70;99.90
11736;DHT22;5924;51.398;7.088;2024-02-28T09:39:14;5.80;99.90
11736;DHT22;5924;51.398;7.088;2024-02-28T09:41:43;5.90;99.90
11736;DHT22;5924;51.398;7.088;2024-02-28T09:44:08;5.90;99.90
11736;DHT22;5924;51.398;7.088;2024-02-28T09:46:35;6.00;99.90
11736;DHT22;5924;51.398;7.088;2024-02-28T09:49:04;6.10;99.90
11736;DHT22;5924;51.398;7.088;2024-02-28T09:51:35;6.10;99.90
11736;DHT22;5924;51.398;7.088;2024-02-28T09:54:04;6.10;99.90
11736;DHT22;5924;51.398;7.088;2024-02-28T09:56:31;6.10;99.90
11736;DHT22;5924;51.398;7.088;2024-02-28T09:58:57;6.10;99.90
11736;DHT22;5924;51.398;7.088;2024-02-28T10:01:25;6.10;99.90
11736;DHT22;5924;51.398;7.088;2024-02-28T10:03:52;6.20;99.90
11736;DHT22;5924;51.398;7.088;2024-02-28T10:06:19;6.20;99.90
11736;DHT22;5924;51.398;7.088;2024-02-28T10:08:45;6.30;99.90
11736;DHT22;5924;51.398;7.088;2024-02-28T10:11:23;6.40;99.90
11736;DHT22;5924;51.398;7.088;2024-02-28T10:13:49;6.40;99.90
11736;DHT22;5924;51.398;7.088;2024-02-28T10:16:16;6.50;99.90
11736;DHT22;5924;51.398;7.088;2024-02-28T10:18:45;6.60;99.90
11736;DHT22;5924;51.398;7.088;2024-02-28T10:21:11;6.70;99.90
11736;DHT22;5924;51.398;7.088;2024-02-28T10:23:44;6.90;99.90
11736;DHT22;5924;51.398;7.088;2024-02-28T10:26:11;7.00;99.90
11736;DHT22;5924;51.398;7.088;2024-02-28T10:28:37;7.00;99.90
11736;DHT22;5924;51.398;7.088;2024-02-28T10:31:04;7.20;99.90
11736;DHT22;5924;51.398;7.088;2024-02-28T10:33:31;7.40;99.90
11736;DHT22;5924;51.398;7.088;2024-02-28T10:35:59;8.20;99.90
11736;DHT22;5924;51.398;7.088;2024-02-28T10:38:26;7.40;99.90
11736;DHT22;5924;51.398;7.088;2024-02-28T10:40:53;7.40;99.90
11736;DHT22;5924;51.398;7.088;2024-02-28T10:43:19;7.40;99.90
11736;DHT22;5924;51.398;7.088;2024-02-28T10:45:45;7.30;99.90
11736;DHT22;5924;51.398;7.088;2024-02-28T10:48:14;7.30;99.90
11736;DHT22;5924;51.398;7.088;2024-02-28T10:50:41;7.20;99.90
11736;DHT22;5924;51.398;7.088;2024-02-28T10:53:13;7.10;99.90
11736;DHT22;5924;51.398;7.088;2024-02-28T10:55:42;7.20;99.90
11736;DHT22;5924;51.398;7.088;2024-02-28T10:58:10;7.40;99.90
11736;DHT22;5924;51.398;7.088;2024-02-28T11:00:39;7.70;99.90
11736;DHT22;5924;51.398;7.088;2024-02-28T11:03:07;7.80;99.90
11736;DHT22;5924;51.398;7.088;2024-02-28T11:05:37;7.90;99.90
11736;DHT22;5924;51.398;7.088;2024-02-28T11:08:08;8.00;99.90
11736;DHT22;5924;51.398;7.088;2024-02-28T11:10:34;7.90;99.90
11736;DHT22;5924;51.398;7.088;2024-02-28T11:13:00;7.80;99.90
11736;DHT22;5924;51.398;7.088;2024-02-28T11:15:26;7.90;99.90
11736;DHT22;5924;51.398;7.088;2024-02-28T11:18:07;8.00;99.90
11736;DHT22;5924;51.398;7.088;2024-02-28T11:20:33;8.30;99.90
11736;DHT22;5924;51.398;7.088;2024-02-28T11:23:00;8.50;99.90
11736;DHT22;5924;51.398;7.088;2024-02-28T11:25:25;8.60;99.90
11736;DHT22;5924;51.398;7.088;2024-02-28T11:27:51;8.60;99.90
11736;DHT22;5924;51.398;7.088;2024-02-28T11:30:17;8.60;99.90
11736;DHT22;5924;51.398;7.088;2024-02-28T11:32:43;8.60;99.90
11736;DHT22;5924;51.398;7.088;2024-02-28T11:35:09;8.60;99.90
11736;DHT22;5924;51.398;7.088;2024-02-28T11:37:38;8.60;99.90
11736;DHT22;5924;51.398;7.088;2024-02-28T11:40:07;8.50;99.90
11736;DHT22;5924;51.398;7.088;2024-02-28T11:42:34;8.40;99.90
11736;DHT22;5924;51.398;7.088;2024-02-28T11:45:00;8.30;99.90
11736;DHT22;5924;51.398;7.088;2024-02-28T11:47:29;8.40;99.90
11736;DHT22;5924;51.398;7.088;2024-02-28T11:49:58;8.40;99.90
11736;DHT22;5924;51.398;7.088;2024-02-28T11:52:25;8.30;99.90
11736;DHT22;5924;51.398;7.088;2024-02-28T11:54:51;6.70;99.90
11736;DHT22;5924;51.398;7.088;2024-02-28T11:57:16;8.20;99.90
11736;DHT22;5924;51.398;7.088;2024-02-28T11:59:44;7.80;99.90
11736;DHT22;5924;51.398;7.088;2024-02-28T12:02:14;8.40;99.90
11736;DHT22;5924;51.398;7.088;2024-02-28T12:04:43;8.60;99.90
11736;DHT22;5924;51.398;7.088;2024-02-28T12:07:10;8.60;99.90
11736;DHT22;5924;51.398;7.088;2024-02-28T12:09:36;8.70;99.90
11736;DHT22;5924;51.398;7.088;2024-02-28T12:12:02;8.60;99.90
11736;DHT22;5924;51.398;7.088;2024-02-28T12:14:31;8.70;99.90
11736;DHT22;5924;51.398;7.088;2024-02-28T12:16:58;8.80;99.90
11736;DHT22;5924;51.398;7.088;2024-02-28T12:19:24;8.80;99.90
11736;DHT22;5924;51.398;7.088;2024-02-28T12:21:50;8.80;99.90
11736;DHT22;5924;51.398;7.088;2024-02-28T12:24:16;8.80;99.90
11736;DHT22;5924;51.398;7.088;2024-02-28T12:26:41;8.90;99.90
11736;DHT22;5924;51.398;7.088;2024-02-28T12:29:07;9.10;99.90
11736;DHT22;5924;51.398;7.088;2024-02-28T12:31:35;9.10;99.90
11736;DHT22;5924;51.398;7.088;2024-02-28T12:34:02;9.20;99.90
11736;DHT22;5924;51.398;7.088;2024-02-28T12:36:29;9.30;99.90
11736;DHT22;5924;51.398;7.088;2024-02-28T12:38:56;11.70;99.90
11736;DHT22;5924;51.398;7.088;2024-02-28T12:41:23;9.60;99.90
11736;DHT22;5924;51.398;7.088;2024-02-28T12:43:49;9.60;99.90
11736;DHT22;5924;51.398;7.088;2024-02-28T12:46:15;9.70;99.90
11736;DHT22;5924;51.398;7.088;2024-02-28T12:48:41;9.90;99.90
11736;DHT22;5924;51.398;7.088;2024-02-28T12:51:08;10.10;99.90
11736;DHT22;5924;51.398;7.088;2024-02-28T12:53:36;10.40;99.90
11736;DHT22;5924;51.398;7.088;2024-02-28T12:56:01;11.00;99.90
11736;DHT22;5924;51.398;7.088;2024-02-28T12:58:27;11.40;99.90
11736;DHT22;5924;51.398;7.088;2024-02-28T13:00:53;11.60;99.90
11736;DHT22;5924;51.398;7.088;2024-02-28T13:03:19;11.80;99.90
11736;DHT22;5924;51.398;7.088;2024-02-28T13:05:44;11.80;99.90
11736;DHT22;5924;51.398;7.088;2024-02-28T13:08:10;11.80;99.90
11736;DHT22;5924;51.398;7.088;2024-02-28T13:10:36;11.70;99.90
11736;DHT22;5924;51.398;7.088;2024-02-28T13:13:06;11.90;99.90
11736;DHT22;5924;51.398;7.088;2024-02-28T13:15:32;12.20;99.90
11736;DHT22;5924;51.398;7.088;2024-02-28T13:17:58;12.50;99.90
11736;DHT22;5924;51.398;7.088;2024-02-28T13:20:24;12.50;99.90
11736;DHT22;5924;51.398;7.088;2024-02-28T13:22:50;12.40;99.90
11736;DHT22;5924;51.398;7.088;2024-02-28T13:25:16;12.10;99.90
11736;DHT22;5924;51.398;7.088;2024-02-28T13:27:45;11.70;99.90
11736;DHT22;5924;51.398;7.088;2024-02-28T13:30:12;11.60;99.90
11736;DHT22;5924;51.398;7.088;2024-02-28T13:32:37;11.50;99.90
11736;DHT22;5924;51.398;7.088;2024-02-28T13:35:04;11.50;99.90
11736;DHT22;5924;51.398;7.088;2024-02-28T13:37:29;11.60;99.90
11736;DHT22;5924;51.398;7.088;2024-02-28T13:39:56;11.40;99.90
11736;DHT22;5924;51.398;7.088;2024-02-28T13:42:22;11.20;99.90
11736;DHT22;5924;51.398;7.088;2024-02-28T13:44:50;11.10;99.90
11736;DHT22;5924;51.398;7.088;2024-02-28T13:47:16;11.10;99.90
11736;DHT22;5924;51.398;7.088;2024-02-28T13:49:41;11.10;99.90
11736;DHT22;5924;51.398;7.088;2024-02-28T13:52:07;11.00;99.90
11736;DHT22;5924;51.398;7.088;2024-02-28T13:54:33;11.00;99.90
11736;DHT22;5924;51.398;7.088;2024-02-28T13:57:00;10.90;99.90
11736;DHT22;5924;51.398;7.088;2024-02-28T13:59:27;10.90;99.90
11736;DHT22;5924;51.398;7.088;2024-02-28T14:01:53;10.80;99.90
11736;DHT22;5924;51.398;7.088;2024-02-28T14:04:19;10.70;99.90
11736;DHT22;5924;51.398;7.088;2024-02-28T14:06:45;10.70;99.90
11736;DHT22;5924;51.398;7.088;2024-02-28T14:09:11;10.60;99.90
11736;DHT22;5924;51.398;7.088;2024-02-28T14:11:37;11.40;99.90
11736;DHT22;5924;51.398;7.088;2024-02-28T14:14:04;10.20;99.90
11736;DHT22;5924;51.398;7.088;2024-02-28T14:16:29;10.10;99.90
11736;DHT22;5924;51.398;7.088;2024-02-28T14:18:57;10.10;99.90
11736;DHT22;5924;51.398;7.088;2024-02-28T14:21:23;10.10;99.90
11736;DHT22;5924;51.398;7.088;2024-02-28T14:23:50;10.10;99.90
11736;DHT22;5924;51.398;7.088;2024-02-28T14:26:16;10.10;99.90
11736;DHT22;5924;51.398;7.088;2024-02-28T14:28:41;10.10;99.90
11736;DHT22;5924;51.398;7.088;2024-02-28T14:31:07;10.10;99.90
11736;DHT22;5924;51.398;7.088;2024-02-28T14:33:32;10.10;99.90
11736;DHT22;5924;51.398;7.088;2024-02-28T14:35:58;10.20;99.90
11736;DHT22;5924;51.398;7.088;2024-02-28T14:38:25;10.20;99.90
11736;DHT22;5924;51.398;7.088;2024-02-28T14:40:51;10.10;99.90
11736;DHT22;5924;51.398;7.088;2024-02-28T14:43:17;10.10;99.90
11736;DHT22;5924;51.398;7.088;2024-02-28T14:45:43;10.10;99.90
11736;DHT22;5924;51.398;7.088;2024-02-28T14:48:08;10.00;99.90
11736;DHT22;5924;51.398;7.088;2024-02-28T14:50:34;9.50;99.90
11736;DHT22;5924;51.398;7.088;2024-02-28T14:53:00;9.90;99.90
11736;DHT22;5924;51.398;7.088;2024-02-28T14:55:25;9.90;99.90
11736;DHT22;5924;51.398;7.088;2024-02-28T14:57:51;9.90;99.90
11736;DHT22;5924;51.398;7.088;2024-02-28T15:00:17;10.00;99.90
11736;DHT22;5924;51.398;7.088;2024-02-28T15:02:44;10.10;99.90
11736;DHT22;5924;51.398;7.088;2024-02-28T15:05:11;10.10;99.90
11736;DHT22;5924;51.398;7.088;2024-02-28T15:07:37;10.20;99.90
11736;DHT22;5924;51.398;7.088;2024-02-28T15:10:06;10.30;99.90
11736;DHT22;5924;51.398;7.088;2024-02-28T15:12:33;10.20;99.90
11736;DHT22;5924;51.398;7.088;2024-02-28T15:15:03;10.10;99.90
11736;DHT22;5924;51.398;7.088;2024-02-28T15:17:30;10.00;99.90
11736;DHT22;5924;51.398;7.088;2024-02-28T15:19:55;9.80;99.90
11736;DHT22;5924;51.398;7.088;2024-02-28T15:22:21;9.70;99.90
11736;DHT22;5924;51.398;7.088;2024-02-28T15:24:47;9.60;99.90
11736;DHT22;5924;51.398;7.088;2024-02-28T15:27:13;9.70;99.90
11736;DHT22;5924;51.398;7.088;2024-02-28T15:29:38;9.70;99.90
11736;DHT22;5924;51.398;7.088;2024-02-28T15:32:05;9.70;99.90
11736;DHT22;5924;51.398;7.088;2024-02-28T15:34:31;9.80;99.90
11736;DHT22;5924;51.398;7.088;2024-02-28T15:36:57;9.80;99.90
11736;DHT22;5924;51.398;7.088;2024-02-28T15:39:22;9.70;99.90
11736;DHT22;5924;51.398;7.088;2024-02-28T15:41:48;9.60;99.90
11736;DHT22;5924;51.398;7.088;2024-02-28T15:44:14;9.50;99.90
11736;DHT22;5924;51.398;7.088;2024-02-28T15:46:39;9.30;99.90
11736;DHT22;5924;51.398;7.088;2024-02-28T15:49:05;9.20;99.90
11736;DHT22;5924;51.398;7.088;2024-02-28T15:51:33;9.10;99.90